Camp Pendleton MCAS (Munn Field) Airport
KNFG : now visible

Airfield :











YOU CAN JOIN US ON...

 
LOGIN :

Register | Disclaimer

   EN    FR    IT 

 









Legend :    VFR   Marginal VFR   IFR   Intensive IFR   Very Intensive IFR
Visi :
Ceiling :
>= 8 km
>= 3000ft
5 to 8 km
1000 to 3000 ft
1500m to 5 km
500 to 1000 ft
800 to 1500m
200 to 500 ft
< 800m
< 200 ft
Symbols :   Thunderstorms  Fog  Heavy snow  Heavy precipitations  Wind > 20 kt






- Airport Elevation : 78 ft


KNFG - Camp Pendleton MCAS (Munn Field)

CURRENT METAR :
  • 041452Z AUTO 00000KT 10SM CLR 04/02 A3013 RMK AO2 SLP203 T00390022 53012 $

EXPIRED METARs :
  • 041352Z AUTO 00000KT 10SM CLR 06/04 A3011 RMK AO2 SLP196 T00560039 $
  • 041252Z AUTO 00000KT 10SM CLR 05/03 A3010 RMK AO2 SLP192 T00500028 $

TAF TAF KNFG
Valid from the 04 at 15:00 until the 05 at 15:00 UTC


0415/0515 VRB05KT 9999 SCT100 BKN250 542403 522709 523604 QNH3011INS
FM041830 23008KT 9999 SCT040 BKN250 500000 QNH3004INS
BECMG 0502/0504 VRB05KT 9999 VCSH BKN030 BKN250 QNH3001INS
TEMPO 0509/0515 8000 BR -RA OVC015 T17/0421Z T10/0514Z
KZLA FIR / North America



MET'MAP, your aeronautical weather chart ! - Copyright ORBIFLY December 2007 - Disclaimer

ORBIFLY MET'MAP TEAM :

Programming & Development : Alexandra Zaïnal
Original concept : Baudouin d'Aumeries
Technical & hardware support : Manuel Goepfert
Assistance : Marc-Olivier Méhu




SOURCES & CREDITS :

   NOAA       Earth
Advisory